West Bend, WI

12:48 AM CST die 21o December, anno 2014 (GMT -0600)
Infinity Networking | Change Station
CLOSE
Current Station
Personal Weather Stations
Location: WestBend, WI
Elevation: 921 ft
Nearby Weather Stations

Elev 921 ft 43.43 °N, 88.16 °W | Updated 14 seconds ago

Overcast
Aequaliter Nubila
29.4 °F
Feels Like 29 °F
N
0.0
Ventus Variabilis Ventus from Magis Zephyrus quam Aquilo
Gusts 0.0 mph

Hodie
High -- | Low -- °F
--% Chance of Precip.
Yesterday
High -- | Low -- °F
Precip. -- in
7:22 AM 4:19 PM
Waning Crescent, 1% visible
Pressio 30.20 in
Visibilitas 7.0 milia passuum
Clouds Plerumque Nubila 2100 ft
Aequaliter Nubila 2900 ft
Frigus Venti 29 °F
Frigus in quo Ros apparet 25 °F
Umor 84%
Rainfall 0.00 in
Snow Depth Not available.
UV 0.0 out of 12
Pollen .10 out of 12
Air Quality Not available.
Flu Activity Not available.
METAR KETB 210630Z AUTO 18003KT 7SM BKN021 OVC029 M01/M03 A3020 RMK AO2

More Conditions Fewer Conditions

Pressio 30.20 in
Visibilitas 7.0 milia passuum
Clouds Plerumque Nubila 2100 ft
Aequaliter Nubila 2900 ft
Frigus Venti 29 °F
Frigus in quo Ros apparet 25 °F
Umor 84%
Rainfall 0.00 in
Snow Depth Not available.
UV 0.0 out of 12
Pollen .10 out of 12
Air Quality Not available.
Flu Activity Not available.
METAR KETB 210630Z AUTO 18003KT 7SM BKN021 OVC029 M01/M03 A3020 RMK AO2

More Conditions Fewer Conditions

10-Day Weather Forecast

Almanac

Astronomy

Dec. 21, 2014 Rise Set
Actual Time
Civil Twilight
Nautical Twilight
Astronomical Twilight
Moon
Length Of Visible Light
Length of Day
Tomorrow will be .
, % of the Moon is Illuminated

Today's Extremes

State Highs State Lows

Community

WunderPhotos

Upload Photos

1,779,360 photos uploaded!

WunderBlogs® & News

Nearby

Air Quality

  Air Quality AQ Index Pollutant
Not available.

Snow Depth

Station Depth Elevation

Earthquake Activity

City Distance Mag. Time & Date
Minimum magnitude displayed is 2.5.

Coastal Water Temperatures

Locus Calor

Nearby Weather Stations